Lake Tacoma, Illinois
Current Conditions -  °F | °C
As of 4:52 PM on Thursday 27 Nov 2014 (Local Time) from KMDH Reporting Station
Clear Clear  
Wind Chill: -1°   Ceiling: Unl
Heat Index: -1°   Visibility: 10mi
Dew Point: -4°   Wind: 3mph
Humidity: 76%   Direction: 350°N
Pressure: 30.47"   Gusts: NA
Location:  37.7248°N, 89.197°W
Report Text: KMDH 272252Z AUTO 35003KT 10SM CLR M01/M04 A3047 RMK AO2 SLP321 T10061044
Loading
Personal Weather Stations






























Interactive Weather Map New forecast layout! Learn more

10-Day Weather Forecast

Advertisements
Track Severe Weather on mobile